Yokosuka Fwf, Japan

9:47 AM JST on February 13, 2016 (GMT +0900)
AshinaJP | | Change Station
CLOSE
Current Station
Personal Weather Station
Location: Yokosuka-shi, KANAGAWA-KEN
Elevation: 89 ft
Nearby Weather Stations

Elev 89 ft 35.23 °N, 139.61 °E | Updated 4 seconds ago

Scattered Clouds
Scattered Clouds
61.9 °F
Feels Like 61.9 °F
N
7.2
Wind Variable Wind from West
Gusts 12.0 mph

Today
High -- | Low -- °F
--% Chance of Precip.
Yesterday
High -- | Low -- °F
Precip. -- in
Pressure 30.15 in
Visibility 5.6 miles
Clouds Few 2000 ft
Scattered Clouds 15000 ft
Dew Point 55 °F
Humidity 78%
Rainfall 0.00 in
Snow Depth Not available.
6:30 AM 5:20 PM
Waxing Crescent, 25% visible
METAR RJTT 130030Z 09003KT 9000 FEW020 SCT150 11/04 Q1021 BECMG TL0130 20014KT RMK 1CU020 3AC150 A3017
Pressure 30.15 in
Visibility 5.6 miles
Clouds Few 2000 ft
Scattered Clouds 15000 ft
Dew Point 55 °F
Humidity 78%
Rainfall 0.00 in
Snow Depth Not available.
6:30 AM 5:20 PM
Waxing Crescent, 25% visible
METAR RJTT 130030Z 09003KT 9000 FEW020 SCT150 11/04 Q1021 BECMG TL0130 20014KT RMK 1CU020 3AC150 A3017

10-Day Weather Forecast

No radar image for this location.
×

Almanac

Astronomy

Feb. 13, 2016 Rise Set
Actual Time
Civil Twilight
Nautical Twilight
Astronomical Twilight
Moon
Length of Visible Light
Length of Day
Tomorrow will be .
, % of the Moon is Illuminated

Today's Extremes

Country Highs Country Lows

Community

WunderPhotos

Upload Photos

1,892,444 photos uploaded!

WunderBlog® & News

Nearby

Air Quality

  Air Quality AQ Index Pollutant
Not available.

Snow Depth

Station Depth Elevation

Earthquake Activity

City Distance Mag. Time & Date
Minimum magnitude displayed is 2.5.

Coastal Water Temperatures

Place Temperature

Stations

Nearby Weather Stations

Station Location Temp. Windchill Dew Point Humidity Wind Precip. Elev Updated Type